ヨハネスブルグ の空港の天気 - METARとTAF

ヨハネスブルグ/O.R.タンボ国際空港 ( FAOR / JNB ) - 南アフリカ ヨハネスブルグ
飛行場実況気象(Metar)
観測時間08/11 09:00 SAST (08/11 07:00 UTC)
風向・風速北 6m/s
視程10km以上
天気現象
なし
気温13℃
湿度41%
気圧1027hPa
METARFAOR 110700Z 35011KT CAVOK 13/M00 Q1027 NOSIG
過去の天気等 Google飛行場航空写真 Wunderground天気予報

過去48時間のMETAR

飛行場予報(TAF)
発表時間: 8/11 06:00 SAST (8/11 04:00 UTC)
予報対象時間: 11日8時 SAST ~ 12日14時 SAST
風向・風速不定 2m/s
視程10km以上
なし
11日8時 SAST ~ 11日10時 SAST に徐々に
風向・風速北西 7m/s
11日18時 SAST から
風向・風速北西 5m/s
視程10km以上
なし
12日9時 SAST から
風向・風速西北西 7m/s
視程10km以上
なし
TAF FAOR 110400Z 1106/1212 VRB03KT CAVOK TX22/1212Z TN10/1204Z
BECMG 1106/1108 31014KT
FM111600 32009KT CAVOK
FM120700 30014KT CAVOK